createdAt,value
2019-02-25T00:00:28.704Z,0.00
2019-02-25T00:01:28.706Z,0.00
2019-02-25T00:02:28.686Z,0.00
2019-02-25T00:03:28.660Z,0.00
2019-02-25T00:04:28.767Z,0.00
2019-02-25T00:05:28.661Z,0.00
2019-02-25T00:06:28.637Z,0.00
2019-02-25T00:07:28.606Z,0.00
2019-02-25T00:08:28.636Z,0.00
2019-02-25T00:09:28.608Z,0.00
2019-02-25T00:10:28.594Z,0.00
2019-02-25T00:11:28.590Z,0.00
2019-02-25T00:12:28.566Z,0.00
2019-02-25T00:13:28.554Z,0.00
2019-02-25T00:14:28.544Z,0.00
2019-02-25T00:15:28.542Z,0.00
2019-02-25T00:16:28.526Z,0.00
2019-02-25T00:17:28.510Z,0.00
2019-02-25T00:18:28.502Z,0.00
2019-02-25T00:19:28.479Z,0.00
2019-02-25T00:20:28.486Z,0.00
2019-02-25T00:21:28.478Z,0.00
2019-02-25T00:22:28.470Z,0.00
2019-02-25T00:23:28.444Z,0.00
2019-02-25T00:24:28.428Z,0.00
2019-02-25T00:25:28.428Z,0.00
2019-02-25T00:26:28.438Z,0.00
2019-02-25T00:27:28.429Z,0.00
2019-02-25T00:28:28.391Z,0.00
2019-02-25T00:29:28.380Z,0.00
2019-02-25T00:30:28.371Z,0.00
2019-02-25T00:31:28.365Z,0.00
2019-02-25T00:32:28.342Z,0.00
2019-02-25T00:33:28.330Z,0.00
2019-02-25T00:34:28.321Z,0.00
2019-02-25T00:35:28.319Z,0.00
2019-02-25T00:36:28.325Z,0.00
2019-02-25T00:37:28.293Z,0.00
2019-02-25T00:38:28.276Z,0.00
2019-02-25T00:39:28.280Z,0.00
2019-02-25T00:40:28.263Z,0.00
2019-02-25T00:41:28.257Z,0.00
2019-02-25T00:42:28.247Z,0.00
2019-02-25T00:43:28.224Z,0.00
2019-02-25T00:44:28.213Z,0.00
2019-02-25T00:45:28.212Z,0.00
2019-02-25T00:46:28.204Z,0.00
2019-02-25T00:47:29.183Z,0.00
2019-02-25T00:48:28.173Z,0.00
2019-02-25T00:49:28.162Z,0.00
2019-02-25T00:50:28.155Z,0.00
2019-02-25T00:51:28.161Z,0.00
2019-02-25T00:53:37.380Z,0.00
2019-02-25T00:54:38.306Z,0.00
2019-02-25T00:55:38.297Z,0.00
2019-02-25T00:56:38.328Z,0.00
2019-02-25T00:57:38.277Z,0.00
2019-02-25T00:58:38.269Z,0.00
2019-02-25T00:59:38.281Z,0.00
2019-02-25T01:00:38.283Z,0.00
2019-02-25T01:01:38.249Z,0.00
2019-02-25T01:02:38.267Z,0.00
2019-02-25T01:03:38.243Z,0.00
2019-02-25T01:04:38.238Z,0.00
2019-02-25T01:05:38.230Z,0.00
2019-02-25T01:06:38.209Z,0.00
2019-02-25T01:07:38.210Z,0.00
2019-02-25T01:08:38.181Z,0.00
2019-02-25T01:09:38.202Z,0.00
2019-02-25T01:10:38.154Z,0.00
2019-02-25T01:11:38.152Z,0.00
2019-02-25T01:12:38.113Z,0.00
2019-02-25T01:13:38.124Z,0.00
2019-02-25T01:14:38.112Z,0.00
2019-02-25T01:15:38.096Z,0.00
2019-02-25T01:16:38.076Z,0.00
2019-02-25T01:17:38.105Z,0.00
2019-02-25T01:18:38.084Z,0.00
2019-02-25T01:19:38.059Z,0.00
2019-02-25T01:20:38.031Z,0.00
2019-02-25T01:21:38.054Z,0.00
2019-02-25T01:22:38.038Z,0.00
2019-02-25T01:23:38.016Z,0.00
2019-02-25T01:24:37.995Z,0.00
2019-02-25T01:25:37.996Z,0.00
2019-02-25T01:26:37.975Z,0.00
2019-02-25T01:27:37.961Z,0.00
2019-02-25T01:28:37.986Z,0.00
2019-02-25T01:29:37.964Z,0.00
2019-02-25T01:30:37.918Z,0.00
2019-02-25T01:31:37.932Z,0.00
2019-02-25T01:32:37.946Z,0.00
2019-02-25T01:33:37.914Z,0.00
2019-02-25T01:34:37.942Z,0.00
2019-02-25T01:35:37.909Z,0.00
2019-02-25T01:36:37.887Z,0.00
2019-02-25T01:37:37.851Z,0.00
2019-02-25T01:38:37.871Z,0.00
2019-02-25T01:39:37.863Z,0.00
2019-02-25T01:40:37.865Z,0.00
2019-02-25T01:41:37.814Z,0.00
2019-02-25T01:42:37.798Z,0.00
2019-02-25T01:43:37.812Z,0.00
2019-02-25T01:44:37.778Z,0.00
2019-02-25T01:45:37.765Z,0.00
2019-02-25T01:46:37.770Z,0.00
2019-02-25T01:47:37.769Z,0.00
2019-02-25T01:48:37.753Z,0.00
2019-02-25T01:49:37.730Z,0.00
2019-02-25T01:50:37.752Z,0.00
2019-02-25T01:51:37.723Z,0.00
2019-02-25T01:52:37.695Z,0.00
2019-02-25T01:53:37.730Z,0.00
2019-02-25T01:54:37.667Z,0.00
2019-02-25T01:55:37.660Z,0.00
2019-02-25T01:56:37.729Z,0.00
2019-02-25T01:57:37.672Z,0.00
2019-02-25T01:58:37.640Z,0.00
2019-02-25T01:59:37.658Z,0.00
2019-02-25T02:00:37.654Z,0.00
2019-02-25T02:01:37.602Z,0.00
2019-02-25T02:02:37.599Z,0.00
2019-02-25T02:03:37.596Z,0.00
2019-02-25T02:04:37.589Z,0.00
2019-02-25T02:05:37.589Z,0.00
2019-02-25T02:06:37.572Z,0.00
2019-02-25T02:07:37.551Z,0.00
2019-02-25T02:08:37.534Z,0.00
2019-02-25T02:09:37.524Z,0.00
2019-02-25T02:10:37.503Z,0.00
2019-02-25T02:11:37.484Z,0.00
2019-02-25T02:12:37.482Z,0.00
2019-02-25T02:13:37.491Z,0.00
2019-02-25T02:14:37.486Z,0.00
2019-02-25T02:15:37.451Z,0.00
2019-02-25T02:16:37.462Z,0.00
2019-02-25T02:17:37.459Z,0.00
2019-02-25T02:18:37.433Z,0.00
2019-02-25T02:19:37.417Z,0.00
2019-02-25T02:20:37.401Z,0.00
2019-02-25T02:21:37.390Z,0.00
2019-02-25T02:22:37.367Z,0.00
2019-02-25T02:23:37.383Z,0.00
2019-02-25T02:24:37.342Z,0.00
2019-02-25T02:25:37.346Z,0.00
2019-02-25T02:26:37.331Z,0.00
2019-02-25T02:27:37.332Z,0.00
2019-02-25T02:28:37.339Z,0.00
2019-02-25T02:29:37.298Z,0.00
2019-02-25T02:30:37.284Z,0.00
2019-02-25T02:31:37.326Z,0.00
2019-02-25T02:32:37.267Z,0.00
2019-02-25T02:33:37.265Z,0.00
2019-02-25T02:34:37.250Z,0.00
2019-02-25T02:35:37.221Z,0.00
2019-02-25T02:36:37.244Z,0.00
2019-02-25T02:37:37.242Z,0.00
2019-02-25T02:38:37.218Z,0.00
2019-02-25T02:39:37.182Z,0.00
2019-02-25T02:40:37.174Z,0.00
2019-02-25T02:41:37.167Z,0.00
2019-02-25T02:42:37.169Z,0.00
2019-02-25T02:43:37.170Z,0.00
2019-02-25T02:44:37.287Z,0.00
2019-02-25T02:45:37.173Z,0.00
2019-02-25T02:46:37.170Z,0.00
2019-02-25T02:47:37.128Z,0.00
2019-02-25T02:48:37.125Z,0.00
2019-02-25T02:49:37.209Z,0.00
2019-02-25T02:50:37.128Z,0.00
2019-02-25T02:51:37.147Z,0.00
2019-02-25T02:52:37.059Z,0.00
2019-02-25T02:54:46.262Z,0.00
2019-02-25T02:55:47.225Z,0.00
2019-02-25T02:56:47.205Z,0.00
2019-02-25T02:57:47.206Z,0.00
2019-02-25T02:58:47.191Z,0.00
2019-02-25T02:59:47.219Z,0.00
2019-02-25T03:00:47.164Z,0.00
2019-02-25T03:01:47.160Z,0.00
2019-02-25T03:02:47.157Z,0.00
2019-02-25T03:03:47.147Z,0.00
2019-02-25T03:04:47.144Z,0.00
2019-02-25T03:05:47.112Z,0.00
2019-02-25T03:06:47.107Z,0.00
2019-02-25T03:07:47.160Z,0.00
2019-02-25T03:08:47.102Z,0.00
2019-02-25T03:09:47.088Z,0.00
2019-02-25T03:10:47.082Z,0.00
2019-02-25T03:11:47.049Z,0.00
2019-02-25T03:12:47.039Z,0.00
2019-02-25T03:13:47.022Z,0.00
2019-02-25T03:14:47.020Z,0.00
2019-02-25T03:15:47.500Z,0.00
2019-02-25T03:16:46.989Z,0.00
2019-02-25T03:17:46.981Z,0.00
2019-02-25T03:18:46.982Z,0.00
2019-02-25T03:19:46.962Z,0.00
2019-02-25T03:20:46.977Z,0.00
2019-02-25T03:21:46.946Z,0.00
2019-02-25T03:22:46.919Z,0.00
2019-02-25T03:23:46.947Z,0.00
2019-02-25T03:24:46.911Z,0.00
2019-02-25T03:25:46.921Z,0.00
2019-02-25T03:26:46.888Z,0.00
2019-02-25T03:27:46.898Z,0.00
2019-02-25T03:28:46.879Z,0.00
2019-02-25T03:29:46.874Z,0.00
2019-02-25T03:30:46.873Z,0.00
2019-02-25T03:31:46.853Z,0.00
2019-02-25T03:32:46.825Z,0.00
2019-02-25T03:33:46.841Z,0.00
2019-02-25T03:34:46.823Z,0.00
2019-02-25T03:35:46.812Z,0.00
2019-02-25T03:36:46.784Z,0.00
2019-02-25T03:37:46.756Z,0.00
2019-02-25T03:38:46.747Z,0.00
2019-02-25T03:39:46.742Z,0.00
2019-02-25T03:40:46.764Z,0.00
2019-02-25T03:41:46.733Z,0.00
2019-02-25T03:42:46.707Z,0.00
2019-02-25T03:43:46.692Z,0.00
2019-02-25T03:44:46.721Z,0.00
2019-02-25T03:45:46.706Z,0.00
2019-02-25T03:46:46.667Z,0.00
2019-02-25T03:47:46.664Z,0.00
2019-02-25T03:48:46.659Z,0.00
2019-02-25T03:49:46.629Z,0.00
2019-02-25T03:50:46.653Z,0.00
2019-02-25T03:51:46.624Z,0.00
2019-02-25T03:52:46.603Z,0.00
2019-02-25T03:53:46.595Z,0.00
2019-02-25T03:54:46.584Z,0.00
2019-02-25T03:55:46.594Z,0.00
2019-02-25T03:56:46.579Z,0.00
2019-02-25T03:57:46.659Z,0.00
2019-02-25T03:58:46.535Z,0.00
2019-02-25T03:59:46.545Z,0.00
2019-02-25T04:00:46.548Z,0.00
2019-02-25T04:01:46.502Z,0.00
2019-02-25T04:02:46.503Z,0.00
2019-02-25T04:03:46.496Z,0.00
2019-02-25T04:04:46.470Z,0.00
2019-02-25T04:05:46.481Z,0.00
2019-02-25T04:06:46.447Z,0.00
2019-02-25T04:07:46.446Z,0.00
2019-02-25T04:08:46.440Z,0.00
2019-02-25T04:09:46.470Z,0.00
2019-02-25T04:10:46.423Z,0.00
2019-02-25T04:11:46.410Z,0.00
2019-02-25T04:12:46.410Z,0.00
2019-02-25T04:13:46.370Z,0.00
2019-02-25T04:14:46.369Z,0.00
2019-02-25T04:15:46.381Z,0.00
2019-02-25T04:16:46.358Z,0.00
2019-02-25T04:17:46.337Z,0.00
2019-02-25T04:18:46.330Z,0.00
2019-02-25T04:19:46.304Z,0.00
2019-02-25T04:20:46.305Z,0.00
2019-02-25T04:21:46.300Z,0.00
2019-02-25T04:22:46.274Z,0.00
2019-02-25T04:23:46.264Z,0.00
2019-02-25T04:24:46.263Z,0.00
2019-02-25T04:25:46.302Z,0.00
2019-02-25T04:26:46.242Z,0.00
2019-02-25T04:27:46.237Z,0.00
2019-02-25T04:28:46.216Z,0.00
2019-02-25T04:29:46.204Z,0.00
2019-02-25T04:30:46.214Z,0.00
2019-02-25T04:31:46.184Z,0.00
2019-02-25T04:32:46.169Z,0.00
2019-02-25T04:33:46.156Z,0.00
2019-02-25T04:34:46.144Z,0.00
2019-02-25T04:35:46.166Z,0.00
2019-02-25T04:36:46.128Z,0.00
2019-02-25T04:37:46.117Z,0.00
2019-02-25T04:38:46.109Z,0.00
2019-02-25T04:39:46.094Z,0.00
2019-02-25T04:40:46.102Z,0.00
2019-02-25T04:41:46.084Z,0.00
2019-02-25T04:42:46.059Z,0.00
2019-02-25T04:43:46.057Z,0.00
2019-02-25T04:44:46.108Z,0.00
2019-02-25T04:45:46.040Z,0.00
2019-02-25T04:46:46.020Z,0.00
2019-02-25T04:47:46.016Z,0.00
2019-02-25T04:48:46.003Z,0.00
2019-02-25T04:49:45.992Z,0.00
2019-02-25T04:50:45.983Z,0.00
2019-02-25T04:51:46.004Z,0.00
2019-02-25T04:52:45.960Z,0.00
2019-02-25T04:53:45.942Z,0.00
2019-02-25T04:55:55.131Z,0.00
2019-02-25T04:56:56.152Z,0.00
2019-02-25T04:57:56.110Z,0.00
2019-02-25T04:58:56.096Z,0.00
2019-02-25T04:59:56.084Z,0.00
2019-02-25T05:00:56.074Z,0.00
2019-02-25T05:01:56.096Z,0.00
2019-02-25T05:02:56.171Z,0.00
2019-02-25T05:03:56.052Z,0.00
2019-02-25T05:04:56.028Z,0.00
2019-02-25T05:05:56.020Z,0.00
2019-02-25T05:06:56.015Z,0.00
2019-02-25T05:07:55.997Z,0.00
2019-02-25T05:08:55.990Z,0.00
2019-02-25T05:09:55.974Z,0.00
2019-02-25T05:10:55.962Z,0.00
2019-02-25T05:11:55.958Z,0.00
2019-02-25T05:12:55.984Z,0.00
2019-02-25T05:13:55.940Z,0.00
2019-02-25T05:14:55.915Z,0.00
2019-02-25T05:15:55.920Z,0.00
2019-02-25T05:16:55.898Z,0.00
2019-02-25T05:17:55.903Z,0.00
2019-02-25T05:18:55.882Z,0.00
2019-02-25T05:19:55.869Z,0.00
2019-02-25T05:20:55.857Z,0.00
2019-02-25T05:21:55.845Z,0.00
2019-02-25T05:22:55.853Z,0.00
2019-02-25T05:23:55.836Z,0.00
2019-02-25T05:24:55.807Z,0.00
2019-02-25T05:25:55.805Z,0.00
2019-02-25T05:26:55.798Z,0.00
2019-02-25T05:27:55.808Z,0.00
2019-02-25T05:28:55.775Z,0.00
2019-02-25T05:29:55.765Z,0.00
2019-02-25T05:30:55.750Z,0.00
2019-02-25T05:31:55.754Z,0.00
2019-02-25T05:32:55.763Z,0.00
2019-02-25T05:33:55.723Z,0.00
2019-02-25T05:34:55.713Z,0.00
2019-02-25T05:35:55.689Z,0.00
2019-02-25T05:36:55.686Z,0.00
2019-02-25T05:37:55.691Z,0.00
2019-02-25T05:38:55.662Z,0.00
2019-02-25T05:39:55.666Z,0.00
2019-02-25T05:40:55.638Z,0.00
2019-02-25T05:41:55.649Z,0.00
2019-02-25T05:42:55.638Z,0.00
2019-02-25T05:43:55.629Z,4.00
2019-02-25T05:44:55.615Z,4.00
2019-02-25T05:45:55.590Z,0.00
2019-02-25T05:46:55.589Z,0.00
2019-02-25T05:47:55.587Z,4.00
2019-02-25T05:48:55.549Z,0.00
2019-02-25T05:49:55.554Z,4.00
2019-02-25T05:50:55.540Z,4.00
2019-02-25T05:51:55.532Z,4.00
2019-02-25T05:52:55.533Z,4.00
2019-02-25T05:53:55.531Z,8.00
2019-02-25T05:54:55.499Z,8.00
2019-02-25T05:55:55.471Z,8.00
2019-02-25T05:56:55.474Z,12.00
2019-02-25T05:57:55.475Z,16.00
2019-02-25T05:58:55.457Z,16.00
2019-02-25T05:59:55.433Z,20.00
2019-02-25T06:00:55.421Z,20.00
2019-02-25T06:01:55.419Z,28.00
2019-02-25T06:02:55.430Z,32.00
2019-02-25T06:03:55.392Z,36.00
2019-02-25T06:04:55.378Z,44.00
2019-02-25T06:05:55.373Z,48.00
2019-02-25T06:06:55.360Z,56.00
2019-02-25T06:07:55.375Z,68.00
2019-02-25T06:08:55.500Z,80.00
2019-02-25T06:09:55.344Z,88.00
2019-02-25T06:10:55.315Z,104.00
2019-02-25T06:11:55.312Z,120.00
2019-02-25T06:12:55.316Z,132.00
2019-02-25T06:13:55.285Z,152.00
2019-02-25T06:14:55.280Z,172.00
2019-02-25T06:15:55.276Z,192.00
2019-02-25T06:16:55.249Z,216.00
2019-02-25T06:17:55.261Z,244.00
2019-02-25T06:18:55.237Z,268.00
2019-02-25T06:19:55.227Z,304.00
2019-02-25T06:20:55.206Z,340.00
2019-02-25T06:21:55.196Z,372.00
2019-02-25T06:22:55.205Z,416.00
2019-02-25T06:23:55.177Z,460.00
2019-02-25T06:24:55.169Z,512.00
2019-02-25T06:25:55.159Z,568.00
2019-02-25T06:26:55.158Z,624.00
2019-02-25T06:27:55.154Z,688.00
2019-02-25T06:28:55.115Z,756.00
2019-02-25T06:29:55.106Z,828.00
2019-02-25T06:30:55.110Z,916.00
2019-02-25T06:31:55.103Z,1004.00
2019-02-25T06:32:55.106Z,1084.00
2019-02-25T06:33:55.078Z,1188.00
2019-02-25T06:34:55.054Z,1288.00
2019-02-25T06:35:55.047Z,1372.00
2019-02-25T06:36:55.049Z,1524.00
2019-02-25T06:37:55.026Z,1928.00
2019-02-25T06:38:55.028Z,2472.00
2019-02-25T06:39:55.015Z,2976.00
2019-02-25T06:40:55.010Z,3368.00
2019-02-25T06:41:54.975Z,3600.00
2019-02-25T06:42:54.972Z,4468.00
2019-02-25T06:43:54.984Z,4860.00
2019-02-25T06:44:54.951Z,5160.00
2019-02-25T06:45:54.933Z,4412.00
2019-02-25T06:46:54.935Z,4280.00
2019-02-25T06:47:54.929Z,4828.00
2019-02-25T06:48:54.927Z,4676.00
2019-02-25T06:49:54.905Z,4124.00
2019-02-25T06:50:54.954Z,3988.00
2019-02-25T06:51:54.894Z,3644.00
2019-02-25T06:52:54.891Z,3508.00
2019-02-25T06:53:54.884Z,3776.00
2019-02-25T06:54:54.882Z,4368.00
2019-02-25T06:57:04.144Z,5516.00
2019-02-25T06:58:05.119Z,6180.00
2019-02-25T06:59:05.122Z,7152.00
2019-02-25T07:00:05.129Z,6420.00
2019-02-25T07:01:05.083Z,6012.00
2019-02-25T07:02:05.064Z,6840.00
2019-02-25T07:03:05.063Z,8168.00
2019-02-25T07:04:05.067Z,9480.00
2019-02-25T07:05:05.045Z,9996.00
2019-02-25T07:06:05.038Z,9656.00
2019-02-25T07:07:05.026Z,10140.00
2019-02-25T07:08:05.005Z,11100.00
2019-02-25T07:09:04.999Z,12412.00
2019-02-25T07:10:04.989Z,14048.00
2019-02-25T07:11:04.973Z,12836.00
2019-02-25T07:12:04.970Z,14272.00
2019-02-25T07:13:04.954Z,16160.00
2019-02-25T07:14:04.941Z,14944.00
2019-02-25T07:15:04.962Z,13920.00
2019-02-25T07:16:04.914Z,12812.00
2019-02-25T07:17:04.910Z,10424.00
2019-02-25T07:18:06.809Z,12188.00
2019-02-25T07:19:04.961Z,12096.00
2019-02-25T07:20:04.893Z,9216.00
2019-02-25T07:21:04.878Z,9800.00
2019-02-25T07:22:05.953Z,11680.00
2019-02-25T07:23:04.846Z,12448.00
2019-02-25T07:24:04.828Z,11700.00
2019-02-25T07:25:04.844Z,12772.00
2019-02-25T07:26:04.809Z,12500.00
2019-02-25T07:27:04.801Z,11816.00
2019-02-25T07:28:04.810Z,15360.00
2019-02-25T07:29:04.788Z,17984.00
2019-02-25T07:30:04.958Z,20160.00
2019-02-25T07:31:04.762Z,23584.00
2019-02-25T07:32:04.760Z,23840.00
2019-02-25T07:33:04.789Z,23488.00
2019-02-25T07:34:04.743Z,25984.00
2019-02-25T07:35:04.742Z,29440.00
2019-02-25T07:36:04.740Z,30880.00
2019-02-25T07:37:04.784Z,27840.00
2019-02-25T07:38:04.744Z,27776.00
2019-02-25T07:39:04.677Z,31072.00
2019-02-25T07:40:04.689Z,35488.00
2019-02-25T07:41:04.695Z,40288.00
2019-02-25T07:42:04.649Z,36896.00
2019-02-25T07:43:04.625Z,34752.00
2019-02-25T07:44:04.617Z,36704.00
2019-02-25T07:45:04.621Z,33568.00
2019-02-25T07:46:04.632Z,28288.00
2019-02-25T07:47:04.605Z,31648.00
2019-02-25T07:48:04.638Z,30944.00
2019-02-25T07:49:04.572Z,31840.00
2019-02-25T07:50:04.612Z,28416.00
2019-02-25T07:51:04.545Z,23936.00
2019-02-25T07:52:04.537Z,29088.00
2019-02-25T07:53:04.517Z,28704.00
2019-02-25T07:54:06.679Z,24160.00
2019-02-25T07:55:04.513Z,27584.00
2019-02-25T07:56:04.517Z,36800.00
2019-02-25T07:57:04.490Z,35936.00
2019-02-25T07:58:04.469Z,36032.00
2019-02-25T07:59:04.458Z,33920.00
2019-02-25T08:00:04.526Z,30208.00
2019-02-25T08:01:04.445Z,32352.00
2019-02-25T08:02:04.484Z,35808.00
2019-02-25T08:03:04.424Z,40288.00
2019-02-25T08:04:04.410Z,49888.00
2019-02-25T08:05:04.417Z,58176.00
2019-02-25T08:06:04.398Z,58240.00
2019-02-25T08:07:04.427Z,54080.00
2019-02-25T08:08:04.596Z,50048.00
2019-02-25T08:09:04.358Z,49888.00
2019-02-25T08:10:04.354Z,56736.00
2019-02-25T08:11:04.339Z,66912.00
2019-02-25T08:12:04.326Z,73856.00
2019-02-25T08:13:04.301Z,74976.00
2019-02-25T08:14:04.287Z,69696.00
2019-02-25T08:15:04.310Z,63200.00
2019-02-25T08:16:04.275Z,59392.00
2019-02-25T08:17:04.688Z,59456.00
2019-02-25T08:18:04.248Z,65248.00
2019-02-25T08:19:04.237Z,71648.00
2019-02-25T08:20:04.249Z,74368.00
2019-02-25T08:21:04.219Z,75296.00
2019-02-25T08:22:04.244Z,81536.00
2019-02-25T08:23:04.205Z,88800.00
2019-02-25T08:24:04.196Z,89120.00
2019-02-25T08:25:04.198Z,81728.00
2019-02-25T08:26:04.169Z,74112.00
2019-02-25T08:27:04.157Z,75552.00
2019-02-25T08:28:04.141Z,84736.00
2019-02-25T08:29:04.142Z,94592.00
2019-02-25T08:30:05.312Z,95520.00
2019-02-25T08:31:04.124Z,89024.00
2019-02-25T08:32:04.130Z,87840.00
2019-02-25T08:33:04.090Z,90432.00
2019-02-25T08:34:04.085Z,92352.00
2019-02-25T08:35:04.098Z,89856.00
2019-02-25T08:36:04.133Z,82432.00
2019-02-25T08:37:04.040Z,81952.00
2019-02-25T08:38:04.046Z,91424.00
2019-02-25T08:39:04.028Z,99232.00
2019-02-25T08:40:04.098Z,95776.00
2019-02-25T08:41:04.030Z,85856.00
2019-02-25T08:42:04.256Z,82496.00
2019-02-25T08:43:03.999Z,92128.00
2019-02-25T08:44:04.033Z,101440.00
2019-02-25T08:45:04.204Z,100320.00
2019-02-25T08:46:03.962Z,91232.00
2019-02-25T08:47:04.073Z,85952.00
2019-02-25T08:48:03.936Z,89984.00
2019-02-25T08:49:03.920Z,96064.00
2019-02-25T08:50:03.907Z,97088.00
2019-02-25T08:51:03.928Z,92480.00
2019-02-25T08:52:03.895Z,88832.00
2019-02-25T08:53:03.876Z,91552.00
2019-02-25T08:54:03.919Z,94592.00
2019-02-25T08:55:03.848Z,93152.00
2019-02-25T08:56:03.872Z,88416.00
2019-02-25T08:58:14.192Z,89856.00
2019-02-25T08:59:15.098Z,96320.00
2019-02-25T09:00:15.099Z,97888.00
2019-02-25T09:01:15.575Z,94432.00
2019-02-25T09:02:15.085Z,89920.00
2019-02-25T09:03:15.071Z,89024.00
2019-02-25T09:04:15.038Z,91520.00
2019-02-25T09:05:15.106Z,94784.00
2019-02-25T09:06:15.034Z,96384.00
2019-02-25T09:07:15.051Z,97216.00
2019-02-25T09:08:15.786Z,90112.00
2019-02-25T09:09:15.004Z,87776.00
2019-02-25T09:10:14.999Z,86848.00
2019-02-25T09:11:15.005Z,89216.00
2019-02-25T09:12:14.980Z,94528.00
2019-02-25T09:13:15.030Z,98688.00
2019-02-25T09:14:14.970Z,99936.00
2019-02-25T09:15:14.962Z,95584.00
2019-02-25T09:16:14.924Z,92224.00
2019-02-25T09:17:16.135Z,90240.00
2019-02-25T09:18:14.908Z,91648.00
2019-02-25T09:19:14.934Z,94624.00
2019-02-25T09:20:14.876Z,95680.00
2019-02-25T09:21:14.862Z,96224.00
2019-02-25T09:22:14.938Z,95232.00
2019-02-25T09:23:14.896Z,94080.00
2019-02-25T09:24:14.975Z,94656.00
2019-02-25T09:25:14.817Z,93056.00
2019-02-25T09:26:14.825Z,89760.00
2019-02-25T09:27:14.840Z,86688.00
2019-02-25T09:28:14.818Z,88832.00
2019-02-25T09:29:14.771Z,95520.00
2019-02-25T09:30:14.839Z,101536.00
2019-02-25T09:31:14.843Z,104256.00
2019-02-25T09:32:14.811Z,104288.00
2019-02-25T09:33:14.796Z,104064.00
2019-02-25T09:34:14.737Z,105952.00
2019-02-25T09:35:14.718Z,106048.00
2019-02-25T09:36:14.738Z,102016.00
2019-02-25T09:37:14.712Z,94816.00
2019-02-25T09:38:14.768Z,91360.00
2019-02-25T09:39:16.696Z,93120.00
2019-02-25T09:40:14.674Z,98496.00
2019-02-25T09:41:14.681Z,103648.00
2019-02-25T09:42:14.660Z,109792.00
2019-02-25T09:43:14.660Z,109632.00
2019-02-25T09:44:14.630Z,108032.00
2019-02-25T09:45:14.643Z,103488.00
2019-02-25T09:46:14.592Z,96032.00
2019-02-25T09:47:14.627Z,89568.00
2019-02-25T09:48:14.603Z,85664.00
2019-02-25T09:49:14.594Z,88288.00
2019-02-25T09:50:14.549Z,97056.00
2019-02-25T09:51:14.536Z,100192.00
2019-02-25T09:52:14.564Z,99264.00
2019-02-25T09:53:14.527Z,94016.00
2019-02-25T09:54:14.511Z,91712.00
2019-02-25T09:55:14.529Z,95392.00
2019-02-25T09:56:14.509Z,98208.00
2019-02-25T09:57:15.007Z,96512.00
2019-02-25T09:58:14.480Z,90464.00
2019-02-25T09:59:14.541Z,87136.00
2019-02-25T10:00:14.582Z,90912.00
2019-02-25T10:01:14.475Z,99168.00
2019-02-25T10:02:14.457Z,107872.00
2019-02-25T10:03:14.509Z,108832.00
2019-02-25T10:04:14.458Z,103040.00
2019-02-25T10:05:14.493Z,98976.00
2019-02-25T10:06:14.557Z,100608.00
2019-02-25T10:07:14.576Z,101536.00
2019-02-25T10:08:14.381Z,104896.00
2019-02-25T10:09:14.434Z,110016.00
2019-02-25T10:10:14.610Z,113344.00
2019-02-25T10:11:14.420Z,114656.00
2019-02-25T10:12:14.414Z,110688.00
2019-02-25T10:13:15.666Z,102528.00
2019-02-25T10:14:14.288Z,102624.00
2019-02-25T10:15:14.603Z,105408.00
2019-02-25T10:16:14.388Z,111168.00
2019-02-25T10:17:23.296Z,113152.00
2019-02-25T10:18:14.535Z,109632.00
2019-02-25T10:19:14.231Z,104256.00
2019-02-25T10:20:14.240Z,97792.00
2019-02-25T10:21:14.492Z,97088.00
2019-02-25T10:22:14.362Z,97760.00
2019-02-25T10:23:14.317Z,96640.00
2019-02-25T10:24:14.352Z,94816.00
2019-02-25T10:25:14.165Z,93344.00
2019-02-25T10:26:14.207Z,98048.00
2019-02-25T10:27:14.162Z,101696.00
2019-02-25T10:28:14.252Z,106976.00
2019-02-25T10:29:14.280Z,107872.00
2019-02-25T10:30:14.203Z,106144.00
2019-02-25T10:31:15.311Z,107520.00
2019-02-25T10:32:14.167Z,105792.00
2019-02-25T10:33:14.447Z,106752.00
2019-02-25T10:34:14.113Z,109792.00
2019-02-25T10:35:14.076Z,115840.00
2019-02-25T10:36:14.169Z,119360.00
2019-02-25T10:37:15.618Z,117856.00
2019-02-25T10:38:14.073Z,113280.00
2019-02-25T10:39:15.535Z,111616.00
2019-02-25T10:40:15.530Z,112032.00
2019-02-25T10:41:14.032Z,110016.00
2019-02-25T10:42:14.001Z,100224.00
2019-02-25T10:43:13.994Z,92352.00
2019-02-25T10:44:13.991Z,91712.00
2019-02-25T10:45:13.989Z,100768.00
2019-02-25T10:46:15.926Z,108224.00
2019-02-25T10:47:15.643Z,108928.00
2019-02-25T10:48:15.215Z,107936.00
2019-02-25T10:49:13.913Z,104448.00
2019-02-25T10:50:13.955Z,106464.00
2019-02-25T10:51:13.873Z,103200.00
2019-02-25T10:52:15.070Z,96544.00
2019-02-25T10:53:15.596Z,91776.00
2019-02-25T10:54:14.718Z,92352.00
2019-02-25T10:55:13.844Z,97120.00
2019-02-25T10:56:14.515Z,101472.00
2019-02-25T10:57:13.827Z,103584.00
2019-02-25T10:59:23.126Z,105664.00
2019-02-25T11:00:24.057Z,108192.00
2019-02-25T11:01:24.546Z,111456.00
2019-02-25T11:02:24.066Z,105856.00
2019-02-25T11:03:24.067Z,99072.00
2019-02-25T11:04:26.124Z,95296.00
2019-02-25T11:05:27.328Z,94304.00
2019-02-25T11:06:25.161Z,98464.00
2019-02-25T11:07:23.974Z,103264.00
2019-02-25T11:08:24.076Z,101728.00
2019-02-25T11:09:24.162Z,85152.00
2019-02-25T11:10:23.940Z,89312.00
2019-02-25T11:11:25.382Z,91200.00
2019-02-25T11:12:25.360Z,97632.00
2019-02-25T11:13:25.444Z,100608.00
2019-02-25T11:14:23.915Z,97664.00
2019-02-25T11:15:23.888Z,94432.00
2019-02-25T11:16:23.878Z,96128.00
2019-02-25T11:17:24.481Z,101312.00
2019-02-25T11:18:26.021Z,104128.00
2019-02-25T11:19:24.912Z,104768.00
2019-02-25T11:20:23.831Z,101120.00
2019-02-25T11:21:24.600Z,100128.00
2019-02-25T11:22:23.835Z,101120.00
2019-02-25T11:23:24.257Z,101312.00
2019-02-25T11:24:25.428Z,99904.00
2019-02-25T11:25:25.729Z,99232.00
2019-02-25T11:26:26.113Z,98464.00
2019-02-25T11:27:23.746Z,100832.00
2019-02-25T11:28:26.068Z,102976.00
2019-02-25T11:29:23.760Z,103040.00
2019-02-25T11:30:24.048Z,102336.00
2019-02-25T11:31:26.308Z,99648.00
2019-02-25T11:32:25.911Z,99168.00
2019-02-25T11:33:25.264Z,105056.00
2019-02-25T11:34:23.690Z,111296.00
2019-02-25T11:35:23.667Z,118304.00
2019-02-25T11:36:23.656Z,111872.00
2019-02-25T11:37:24.757Z,96288.00
2019-02-25T11:38:25.492Z,83872.00
2019-02-25T11:39:25.266Z,83488.00
2019-02-25T11:40:23.616Z,95552.00
2019-02-25T11:41:23.595Z,103072.00
2019-02-25T11:42:23.593Z,91200.00
2019-02-25T11:43:23.585Z,72992.00
2019-02-25T11:44:25.916Z,67840.00
2019-02-25T11:45:23.902Z,75488.00
2019-02-25T11:46:23.562Z,88160.00
2019-02-25T11:47:23.586Z,89824.00
2019-02-25T11:48:23.514Z,90336.00
2019-02-25T11:49:23.537Z,94432.00
2019-02-25T11:50:23.531Z,98208.00
2019-02-25T11:51:23.491Z,95680.00
2019-02-25T11:52:23.476Z,91232.00
2019-02-25T11:53:23.501Z,86592.00
2019-02-25T11:54:23.471Z,85248.00
2019-02-25T11:55:23.453Z,84672.00
2019-02-25T11:56:23.503Z,85760.00
2019-02-25T11:57:23.548Z,87008.00
2019-02-25T11:58:23.411Z,87200.00
2019-02-25T11:59:23.432Z,85312.00
2019-02-25T12:00:23.405Z,85440.00
2019-02-25T12:01:23.404Z,83584.00
2019-02-25T12:02:25.853Z,82176.00
2019-02-25T12:03:23.355Z,82016.00
2019-02-25T12:04:23.378Z,86912.00
2019-02-25T12:05:23.354Z,87552.00
2019-02-25T12:06:23.348Z,83456.00
2019-02-25T12:07:23.315Z,83520.00
2019-02-25T12:08:23.030Z,89120.00
2019-02-25T12:09:23.323Z,92032.00
2019-02-25T12:10:23.293Z,86624.00
2019-02-25T12:11:23.281Z,79264.00
2019-02-25T12:12:23.371Z,80992.00
2019-02-25T12:13:23.251Z,90880.00
2019-02-25T12:14:23.258Z,95136.00
2019-02-25T12:15:23.227Z,91616.00
2019-02-25T12:16:23.219Z,90848.00
2019-02-25T12:17:23.199Z,94368.00
2019-02-25T12:18:23.270Z,98304.00
2019-02-25T12:19:23.209Z,93632.00
2019-02-25T12:20:23.167Z,88000.00
2019-02-25T12:21:23.151Z,89184.00
2019-02-25T12:22:23.153Z,89440.00
2019-02-25T12:23:23.138Z,85824.00
2019-02-25T12:24:23.157Z,83360.00
2019-02-25T12:25:23.124Z,82912.00
2019-02-25T12:26:23.102Z,82048.00
2019-02-25T12:27:23.083Z,82176.00
2019-02-25T12:28:23.092Z,83584.00
2019-02-25T12:29:23.097Z,82144.00
2019-02-25T12:30:23.060Z,81248.00
2019-02-25T12:31:23.068Z,78752.00
2019-02-25T12:32:23.048Z,76704.00
2019-02-25T12:33:23.034Z,75744.00
2019-02-25T12:34:23.015Z,75040.00